sensor_id;sensor_type;location;lat;lon;timestamp;pressure;altitude;pressure_sealevel;temperature;humidity
76124;BME280;65173;48.066;20.976;2023-11-21T00:01:07;99835.16;;;3.58;100.00
76124;BME280;65173;48.066;20.976;2023-11-21T00:04:11;99841.81;;;3.50;100.00
76124;BME280;65173;48.066;20.976;2023-11-21T00:07:14;99838.91;;;3.52;100.00
76124;BME280;65173;48.066;20.976;2023-11-21T00:10:17;99841.06;;;3.44;100.00
76124;BME280;65173;48.066;20.976;2023-11-21T00:13:19;99840.94;;;3.60;100.00
76124;BME280;65173;48.066;20.976;2023-11-21T00:16:22;99833.81;;;3.60;100.00
76124;BME280;65173;48.066;20.976;2023-11-21T00:19:24;99842.22;;;3.62;100.00
76124;BME280;65173;48.066;20.976;2023-11-21T00:22:27;99845.66;;;3.63;100.00
76124;BME280;65173;48.066;20.976;2023-11-21T00:25:29;99832.56;;;3.53;100.00
76124;BME280;65173;48.066;20.976;2023-11-21T00:28:33;99852.31;;;3.55;100.00
76124;BME280;65173;48.066;20.976;2023-11-21T00:31:36;99845.03;;;3.42;100.00
76124;BME280;65173;48.066;20.976;2023-11-21T00:34:40;99854.19;;;3.49;100.00
76124;BME280;65173;48.066;20.976;2023-11-21T00:37:43;99849.44;;;3.52;100.00
76124;BME280;65173;48.066;20.976;2023-11-21T00:40:46;99852.88;;;3.52;100.00
76124;BME280;65173;48.066;20.976;2023-11-21T00:43:48;99844.03;;;3.38;100.00
76124;BME280;65173;48.066;20.976;2023-11-21T00:46:51;99860.34;;;3.40;100.00
76124;BME280;65173;48.066;20.976;2023-11-21T00:49:53;99859.06;;;3.32;100.00
76124;BME280;65173;48.066;20.976;2023-11-21T00:52:56;99850.28;;;3.42;100.00
76124;BME280;65173;48.066;20.976;2023-11-21T00:55:59;99842.91;;;3.44;100.00
76124;BME280;65173;48.066;20.976;2023-11-21T00:59:01;99845.81;;;3.42;100.00
76124;BME280;65173;48.066;20.976;2023-11-21T01:02:04;99847.88;;;3.51;100.00
76124;BME280;65173;48.066;20.976;2023-11-21T01:05:07;99839.94;;;3.56;100.00
76124;BME280;65173;48.066;20.976;2023-11-21T01:08:11;99830.19;;;3.56;100.00
76124;BME280;65173;48.066;20.976;2023-11-21T01:11:13;99835.47;;;3.51;100.00
76124;BME280;65173;48.066;20.976;2023-11-21T01:14:16;99826.25;;;3.54;100.00
76124;BME280;65173;48.066;20.976;2023-11-21T01:17:20;99829.31;;;3.61;100.00
76124;BME280;65173;48.066;20.976;2023-11-21T01:20:26;99823.09;;;3.52;100.00
76124;BME280;65173;48.066;20.976;2023-11-21T01:23:29;99827.84;;;3.49;100.00
76124;BME280;65173;48.066;20.976;2023-11-21T01:26:31;99819.13;;;3.54;100.00
76124;BME280;65173;48.066;20.976;2023-11-21T01:29:34;99819.94;;;3.49;100.00
76124;BME280;65173;48.066;20.976;2023-11-21T01:32:37;99817.22;;;3.60;100.00
76124;BME280;65173;48.066;20.976;2023-11-21T01:35:42;99813.00;;;3.59;100.00
76124;BME280;65173;48.066;20.976;2023-11-21T01:38:44;99817.31;;;3.49;100.00
76124;BME280;65173;48.066;20.976;2023-11-21T01:41:48;99812.28;;;3.53;100.00
76124;BME280;65173;48.066;20.976;2023-11-21T01:44:50;99819.63;;;3.56;100.00
76124;BME280;65173;48.066;20.976;2023-11-21T01:47:53;99820.97;;;3.54;100.00
76124;BME280;65173;48.066;20.976;2023-11-21T01:50:58;99823.69;;;3.43;100.00
76124;BME280;65173;48.066;20.976;2023-11-21T01:54:02;99835.38;;;3.32;100.00
76124;BME280;65173;48.066;20.976;2023-11-21T01:57:19;99847.94;;;3.40;100.00
76124;BME280;65173;48.066;20.976;2023-11-21T02:00:23;99838.28;;;3.31;100.00
76124;BME280;65173;48.066;20.976;2023-11-21T02:03:26;99849.69;;;3.21;100.00
76124;BME280;65173;48.066;20.976;2023-11-21T02:06:28;99847.50;;;3.28;100.00
76124;BME280;65173;48.066;20.976;2023-11-21T02:09:33;99845.34;;;3.35;100.00
76124;BME280;65173;48.066;20.976;2023-11-21T02:12:36;99820.03;;;3.39;100.00
76124;BME280;65173;48.066;20.976;2023-11-21T02:15:39;99823.47;;;3.40;100.00
76124;BME280;65173;48.066;20.976;2023-11-21T02:18:41;99831.66;;;3.38;100.00
76124;BME280;65173;48.066;20.976;2023-11-21T02:21:45;99834.34;;;3.28;100.00
76124;BME280;65173;48.066;20.976;2023-11-21T02:24:48;99827.53;;;3.56;100.00
76124;BME280;65173;48.066;20.976;2023-11-21T02:27:51;99826.00;;;3.50;100.00
76124;BME280;65173;48.066;20.976;2023-11-21T02:30:54;99832.38;;;3.44;100.00
76124;BME280;65173;48.066;20.976;2023-11-21T02:33:58;99830.84;;;3.38;100.00
76124;BME280;65173;48.066;20.976;2023-11-21T02:37:02;99824.69;;;3.47;100.00
76124;BME280;65173;48.066;20.976;2023-11-21T02:40:05;99827.88;;;3.44;100.00
76124;BME280;65173;48.066;20.976;2023-11-21T02:43:11;99827.31;;;3.53;100.00
76124;BME280;65173;48.066;20.976;2023-11-21T02:46:14;99820.22;;;3.48;100.00
76124;BME280;65173;48.066;20.976;2023-11-21T02:49:16;99809.50;;;3.39;100.00
76124;BME280;65173;48.066;20.976;2023-11-21T02:52:19;99809.13;;;3.22;100.00
76124;BME280;65173;48.066;20.976;2023-11-21T02:55:22;99814.34;;;3.27;100.00
76124;BME280;65173;48.066;20.976;2023-11-21T02:58:28;99811.47;;;3.24;100.00
76124;BME280;65173;48.066;20.976;2023-11-21T03:01:31;99822.31;;;3.17;100.00
76124;BME280;65173;48.066;20.976;2023-11-21T03:04:34;99815.66;;;3.25;100.00
76124;BME280;65173;48.066;20.976;2023-11-21T03:07:38;99818.81;;;3.27;100.00
76124;BME280;65173;48.066;20.976;2023-11-21T03:10:41;99809.50;;;3.39;100.00
76124;BME280;65173;48.066;20.976;2023-11-21T03:13:43;99822.34;;;3.46;100.00
76124;BME280;65173;48.066;20.976;2023-11-21T03:16:46;99816.28;;;3.45;100.00
76124;BME280;65173;48.066;20.976;2023-11-21T03:19:48;99832.38;;;3.44;100.00
76124;BME280;65173;48.066;20.976;2023-11-21T03:22:51;99831.84;;;3.42;100.00
76124;BME280;65173;48.066;20.976;2023-11-21T03:25:53;99836.13;;;3.38;100.00
76124;BME280;65173;48.066;20.976;2023-11-21T03:28:56;99837.88;;;3.47;100.00
76124;BME280;65173;48.066;20.976;2023-11-21T03:31:58;99829.47;;;3.45;100.00
76124;BME280;65173;48.066;20.976;2023-11-21T03:35:01;99831.28;;;3.50;100.00
76124;BME280;65173;48.066;20.976;2023-11-21T03:38:04;99832.53;;;3.58;100.00
76124;BME280;65173;48.066;20.976;2023-11-21T03:41:07;99830.38;;;3.60;100.00
76124;BME280;65173;48.066;20.976;2023-11-21T03:44:13;99826.75;;;3.56;100.00
76124;BME280;65173;48.066;20.976;2023-11-21T03:47:15;99817.00;;;3.56;100.00
76124;BME280;65173;48.066;20.976;2023-11-21T03:50:18;99825.34;;;3.63;100.00
76124;BME280;65173;48.066;20.976;2023-11-21T03:53:20;99838.28;;;3.60;100.00
76124;BME280;65173;48.066;20.976;2023-11-21T03:56:23;99843.78;;;3.63;100.00
76124;BME280;65173;48.066;20.976;2023-11-21T03:59:25;99820.06;;;3.34;100.00
76124;BME280;65173;48.066;20.976;2023-11-21T04:02:28;99824.28;;;3.35;100.00
76124;BME280;65173;48.066;20.976;2023-11-21T04:05:32;99829.88;;;3.24;100.00
76124;BME280;65173;48.066;20.976;2023-11-21T04:08:34;99824.03;;;3.32;100.00
76124;BME280;65173;48.066;20.976;2023-11-21T04:11:36;99813.66;;;3.45;100.00
76124;BME280;65173;48.066;20.976;2023-11-21T04:14:39;99808.06;;;3.52;100.00
76124;BME280;65173;48.066;20.976;2023-11-21T04:17:42;99810.66;;;3.57;100.00
76124;BME280;65173;48.066;20.976;2023-11-21T04:20:44;99804.63;;;3.57;100.00
76124;BME280;65173;48.066;20.976;2023-11-21T04:23:47;99793.22;;;3.61;100.00
76124;BME280;65173;48.066;20.976;2023-11-21T04:26:49;99795.66;;;3.58;100.00
76124;BME280;65173;48.066;20.976;2023-11-21T04:29:52;99781.97;;;3.56;100.00
76124;BME280;65173;48.066;20.976;2023-11-21T04:32:54;99780.66;;;3.53;100.00
76124;BME280;65173;48.066;20.976;2023-11-21T04:35:57;99788.91;;;3.41;100.00
76124;BME280;65173;48.066;20.976;2023-11-21T04:38:59;99785.19;;;3.47;100.00
76124;BME280;65173;48.066;20.976;2023-11-21T04:42:01;99792.16;;;3.33;100.00
76124;BME280;65173;48.066;20.976;2023-11-21T04:45:05;99806.03;;;3.44;100.00
76124;BME280;65173;48.066;20.976;2023-11-21T04:48:11;99814.47;;;3.41;100.00
76124;BME280;65173;48.066;20.976;2023-11-21T04:51:14;99823.16;;;3.41;100.00
76124;BME280;65173;48.066;20.976;2023-11-21T04:54:17;99826.66;;;3.37;100.00
76124;BME280;65173;48.066;20.976;2023-11-21T04:57:20;99845.03;;;3.42;100.00
76124;BME280;65173;48.066;20.976;2023-11-21T05:00:23;99839.06;;;3.31;100.00
76124;BME280;65173;48.066;20.976;2023-11-21T05:03:26;99855.28;;;3.43;100.00
76124;BME280;65173;48.066;20.976;2023-11-21T05:06:29;99855.25;;;3.48;100.00
76124;BME280;65173;48.066;20.976;2023-11-21T05:09:31;99860.16;;;3.60;100.00
76124;BME280;65173;48.066;20.976;2023-11-21T05:12:34;99846.53;;;3.53;100.00
76124;BME280;65173;48.066;20.976;2023-11-21T05:15:40;99838.59;;;3.58;100.00
76124;BME280;65173;48.066;20.976;2023-11-21T05:18:43;99836.72;;;3.59;100.00
76124;BME280;65173;48.066;20.976;2023-11-21T05:21:45;99836.50;;;3.55;100.00
76124;BME280;65173;48.066;20.976;2023-11-21T05:24:48;99849.44;;;3.52;100.00
76124;BME280;65173;48.066;20.976;2023-11-21T05:27:51;99851.28;;;3.51;100.00
76124;BME280;65173;48.066;20.976;2023-11-21T05:30:53;99841.50;;;3.57;100.00
76124;BME280;65173;48.066;20.976;2023-11-21T05:34:15;99855.28;;;3.43;100.00
76124;BME280;65173;48.066;20.976;2023-11-21T05:37:20;99853.00;;;3.37;100.00
76124;BME280;65173;48.066;20.976;2023-11-21T05:40:22;99865.75;;;3.54;100.00
76124;BME280;65173;48.066;20.976;2023-11-21T05:43:25;99876.03;;;3.55;100.00
76124;BME280;65173;48.066;20.976;2023-11-21T05:46:27;99875.00;;;3.51;100.00
76124;BME280;65173;48.066;20.976;2023-11-21T05:49:30;99892.38;;;3.52;100.00
76124;BME280;65173;48.066;20.976;2023-11-21T05:52:33;99896.25;;;3.60;100.00
76124;BME280;65173;48.066;20.976;2023-11-21T05:55:35;99900.16;;;3.67;100.00
76124;BME280;65173;48.066;20.976;2023-11-21T05:58:38;99891.19;;;3.68;100.00
76124;BME280;65173;48.066;20.976;2023-11-21T06:01:40;99889.25;;;3.79;100.00
76124;BME280;65173;48.066;20.976;2023-11-21T06:04:43;99892.50;;;3.71;100.00
76124;BME280;65173;48.066;20.976;2023-11-21T06:07:46;99889.53;;;3.77;100.00
76124;BME280;65173;48.066;20.976;2023-11-21T06:10:48;99885.50;;;3.85;100.00
76124;BME280;65173;48.066;20.976;2023-11-21T06:13:51;99888.34;;;3.94;100.00
76124;BME280;65173;48.066;20.976;2023-11-21T06:16:55;99898.66;;;3.90;100.00
76124;BME280;65173;48.066;20.976;2023-11-21T06:19:59;99903.16;;;3.90;100.00
76124;BME280;65173;48.066;20.976;2023-11-21T06:23:03;99909.13;;;3.95;100.00
76124;BME280;65173;48.066;20.976;2023-11-21T06:26:06;99923.50;;;3.79;100.00
76124;BME280;65173;48.066;20.976;2023-11-21T06:29:08;99933.38;;;3.97;100.00
76124;BME280;65173;48.066;20.976;2023-11-21T06:32:11;99928.44;;;3.91;100.00
76124;BME280;65173;48.066;20.976;2023-11-21T06:35:15;99925.28;;;3.89;100.00
76124;BME280;65173;48.066;20.976;2023-11-21T06:38:19;99930.22;;;3.95;100.00
76124;BME280;65173;48.066;20.976;2023-11-21T06:41:22;99934.44;;;3.96;100.00
76124;BME280;65173;48.066;20.976;2023-11-21T06:44:24;99927.59;;;3.95;100.00
76124;BME280;65173;48.066;20.976;2023-11-21T06:47:27;99921.78;;;3.98;100.00
76124;BME280;65173;48.066;20.976;2023-11-21T06:50:32;99917.84;;;3.96;100.00
76124;BME280;65173;48.066;20.976;2023-11-21T06:53:36;99919.66;;;4.00;100.00
76124;BME280;65173;48.066;20.976;2023-11-21T06:56:40;99924.13;;;4.00;100.00
76124;BME280;65173;48.066;20.976;2023-11-21T06:59:43;99925.44;;;4.02;100.00
76124;BME280;65173;48.066;20.976;2023-11-21T07:02:46;99937.59;;;3.98;100.00
76124;BME280;65173;48.066;20.976;2023-11-21T07:05:49;99934.59;;;4.10;100.00
76124;BME280;65173;48.066;20.976;2023-11-21T07:08:51;99941.63;;;4.19;100.00
76124;BME280;65173;48.066;20.976;2023-11-21T07:11:55;99945.00;;;4.25;100.00
76124;BME280;65173;48.066;20.976;2023-11-21T07:14:58;99934.31;;;4.11;100.00
76124;BME280;65173;48.066;20.976;2023-11-21T07:18:00;99954.56;;;4.16;100.00
76124;BME280;65173;48.066;20.976;2023-11-21T07:21:03;99962.72;;;4.19;100.00
76124;BME280;65173;48.066;20.976;2023-11-21T07:24:07;99945.03;;;4.20;100.00
76124;BME280;65173;48.066;20.976;2023-11-21T07:27:10;99941.84;;;4.23;100.00
76124;BME280;65173;48.066;20.976;2023-11-21T07:30:13;99947.88;;;4.29;100.00
76124;BME280;65173;48.066;20.976;2023-11-21T07:33:15;99946.81;;;4.30;100.00
76124;BME280;65173;48.066;20.976;2023-11-21T07:36:19;99940.69;;;4.34;100.00
76124;BME280;65173;48.066;20.976;2023-11-21T07:39:23;99935.94;;;4.31;100.00
76124;BME280;65173;48.066;20.976;2023-11-21T07:42:25;99939.38;;;4.32;100.00
76124;BME280;65173;48.066;20.976;2023-11-21T07:45:28;99943.59;;;4.33;100.00
76124;BME280;65173;48.066;20.976;2023-11-21T07:48:31;99952.03;;;4.35;100.00
76124;BME280;65173;48.066;20.976;2023-11-21T07:51:33;99951.31;;;4.29;100.00
76124;BME280;65173;48.066;20.976;2023-11-21T07:54:36;99957.06;;;4.31;100.00
76124;BME280;65173;48.066;20.976;2023-11-21T07:57:38;99965.22;;;4.35;100.00
76124;BME280;65173;48.066;20.976;2023-11-21T08:00:41;99968.91;;;4.34;100.00
76124;BME280;65173;48.066;20.976;2023-11-21T08:03:43;99962.03;;;4.38;100.00
76124;BME280;65173;48.066;20.976;2023-11-21T08:06:46;99960.34;;;4.47;100.00
76124;BME280;65173;48.066;20.976;2023-11-21T08:09:49;99974.34;;;4.47;100.00
76124;BME280;65173;48.066;20.976;2023-11-21T08:12:52;99981.88;;;4.59;100.00
76124;BME280;65173;48.066;20.976;2023-11-21T08:15:56;99982.75;;;4.49;100.00
76124;BME280;65173;48.066;20.976;2023-11-21T08:19:03;99976.03;;;4.62;100.00
76124;BME280;65173;48.066;20.976;2023-11-21T08:22:06;99984.78;;;4.58;100.00
76124;BME280;65173;48.066;20.976;2023-11-21T08:25:10;99990.88;;;4.53;100.00
76124;BME280;65173;48.066;20.976;2023-11-21T08:28:13;99988.91;;;4.40;100.00
76124;BME280;65173;48.066;20.976;2023-11-21T08:31:24;99983.34;;;4.41;100.00
76124;BME280;65173;48.066;20.976;2023-11-21T08:34:27;99992.06;;;4.42;100.00
76124;BME280;65173;48.066;20.976;2023-11-21T08:37:30;99987.94;;;4.60;100.00
76124;BME280;65173;48.066;20.976;2023-11-21T08:40:35;99992.94;;;4.61;100.00
76124;BME280;65173;48.066;20.976;2023-11-21T08:43:38;99993.16;;;4.65;100.00
76124;BME280;65173;48.066;20.976;2023-11-21T08:46:44;99989.66;;;4.69;100.00
76124;BME280;65173;48.066;20.976;2023-11-21T08:49:50;99997.22;;;4.81;100.00
76124;BME280;65173;48.066;20.976;2023-11-21T08:52:55;99992.91;;;4.85;100.00
76124;BME280;65173;48.066;20.976;2023-11-21T08:55:58;99991.47;;;4.98;100.00
76124;BME280;65173;48.066;20.976;2023-11-21T08:59:01;99987.53;;;4.95;100.00
76124;BME280;65173;48.066;20.976;2023-11-21T09:02:05;99991.47;;;4.98;100.00
76124;BME280;65173;48.066;20.976;2023-11-21T09:05:12;99983.63;;;5.11;100.00
76124;BME280;65173;48.066;20.976;2023-11-21T09:08:16;99993.41;;;5.11;100.00
76124;BME280;65173;48.066;20.976;2023-11-21T09:11:18;99992.69;;;5.05;100.00
76124;BME280;65173;48.066;20.976;2023-11-21T09:14:21;99985.63;;;5.01;100.00
76124;BME280;65173;48.066;20.976;2023-11-21T09:17:23;99991.78;;;5.15;100.00
76124;BME280;65173;48.066;20.976;2023-11-21T09:20:26;99993.47;;;5.06;100.00
76124;BME280;65173;48.066;20.976;2023-11-21T09:23:29;99997.72;;;5.02;100.00
76124;BME280;65173;48.066;20.976;2023-11-21T09:26:31;100003.38;;;4.71;100.00
76124;BME280;65173;48.066;20.976;2023-11-21T09:29:34;100000.50;;;4.92;100.00
76124;BME280;65173;48.066;20.976;2023-11-21T09:32:38;99989.25;;;5.05;100.00
76124;BME280;65173;48.066;20.976;2023-11-21T09:35:41;99973.34;;;5.10;100.00
76124;BME280;65173;48.066;20.976;2023-11-21T09:38:43;99975.63;;;4.98;100.00
76124;BME280;65173;48.066;20.976;2023-11-21T09:41:51;99984.13;;;5.13;100.00
76124;BME280;65173;48.066;20.976;2023-11-21T09:44:58;99976.72;;;5.15;100.00
76124;BME280;65173;48.066;20.976;2023-11-21T09:48:07;99981.63;;;5.22;100.00
76124;BME280;65173;48.066;20.976;2023-11-21T09:51:10;99976.00;;;5.29;100.00
76124;BME280;65173;48.066;20.976;2023-11-21T09:54:15;99985.44;;;5.35;100.00
76124;BME280;65173;48.066;20.976;2023-11-21T09:57:20;99984.94;;;5.33;100.00
76124;BME280;65173;48.066;20.976;2023-11-21T10:00:26;99982.94;;;5.43;100.00
76124;BME280;65173;48.066;20.976;2023-11-21T10:03:29;99978.38;;;5.49;100.00
76124;BME280;65173;48.066;20.976;2023-11-21T10:06:33;99979.88;;;5.55;100.00
76124;BME280;65173;48.066;20.976;2023-11-21T10:09:37;99973.94;;;5.44;100.00
76124;BME280;65173;48.066;20.976;2023-11-21T10:12:41;99969.38;;;5.69;100.00
76124;BME280;65173;48.066;20.976;2023-11-21T10:15:50;99970.66;;;5.71;100.00
76124;BME280;65173;48.066;20.976;2023-11-21T10:18:53;99969.22;;;5.60;100.00
76124;BME280;65173;48.066;20.976;2023-11-21T10:22:12;99970.28;;;5.59;100.00
76124;BME280;65173;48.066;20.976;2023-11-21T10:25:15;99972.31;;;5.48;100.00
76124;BME280;65173;48.066;20.976;2023-11-21T10:28:17;99974.22;;;5.62;100.00
76124;BME280;65173;48.066;20.976;2023-11-21T10:31:20;99968.38;;;5.65;100.00
76124;BME280;65173;48.066;20.976;2023-11-21T10:34:22;99970.66;;;5.71;100.00
76124;BME280;65173;48.066;20.976;2023-11-21T10:37:25;99969.38;;;5.69;100.00
76124;BME280;65173;48.066;20.976;2023-11-21T10:40:29;99963.66;;;5.62;100.00
76124;BME280;65173;48.066;20.976;2023-11-21T10:43:31;99960.25;;;5.75;100.00
76124;BME280;65173;48.066;20.976;2023-11-21T10:46:37;99957.25;;;5.81;100.00
76124;BME280;65173;48.066;20.976;2023-11-21T10:49:42;99939.06;;;5.61;100.00
76124;BME280;65173;48.066;20.976;2023-11-21T10:52:45;99938.16;;;5.71;100.00
76124;BME280;65173;48.066;20.976;2023-11-21T10:55:49;99938.94;;;5.71;100.00
76124;BME280;65173;48.066;20.976;2023-11-21T10:58:52;99939.75;;;5.85;100.00
76124;BME280;65173;48.066;20.976;2023-11-21T11:01:57;99937.19;;;5.80;100.00
76124;BME280;65173;48.066;20.976;2023-11-21T11:05:01;99937.84;;;5.91;100.00
76124;BME280;65173;48.066;20.976;2023-11-21T11:08:06;99941.97;;;5.97;100.00
76124;BME280;65173;48.066;20.976;2023-11-21T11:11:10;99938.53;;;5.97;100.00
76124;BME280;65173;48.066;20.976;2023-11-21T11:14:13;99938.44;;;6.02;100.00
76124;BME280;65173;48.066;20.976;2023-11-21T11:17:16;99937.84;;;5.91;100.00
76124;BME280;65173;48.066;20.976;2023-11-21T11:20:23;99930.47;;;5.88;100.00
76124;BME280;65173;48.066;20.976;2023-11-21T11:27:00;99931.03;;;5.85;100.00
76124;BME280;65173;48.066;20.976;2023-11-21T11:33:50;99928.41;;;5.66;100.00
76124;BME280;65173;48.066;20.976;2023-11-21T11:37:03;99914.53;;;5.74;100.00
76124;BME280;65173;48.066;20.976;2023-11-21T11:40:07;99924.25;;;5.79;100.00
76124;BME280;65173;48.066;20.976;2023-11-21T11:43:09;99921.59;;;5.79;100.00
76124;BME280;65173;48.066;20.976;2023-11-21T11:46:12;99928.88;;;5.87;100.00
76124;BME280;65173;48.066;20.976;2023-11-21T11:49:24;99932.56;;;5.91;100.00
76124;BME280;65173;48.066;20.976;2023-11-21T11:52:49;99932.94;;;5.98;100.00
76124;BME280;65173;48.066;20.976;2023-11-21T11:56:18;99926.94;;;5.92;100.00
76124;BME280;65173;48.066;20.976;2023-11-21T11:59:21;99936.38;;;5.99;100.00
76124;BME280;65173;48.066;20.976;2023-11-21T12:02:24;99933.25;;;5.97;100.00
76124;BME280;65173;48.066;20.976;2023-11-21T12:05:26;99933.53;;;5.95;100.00
76124;BME280;65173;48.066;20.976;2023-11-21T12:08:35;99937.25;;;5.94;100.00
76124;BME280;65173;48.066;20.976;2023-11-21T12:11:41;99938.81;;;5.95;100.00
76124;BME280;65173;48.066;20.976;2023-11-21T12:14:43;99937.25;;;5.94;100.00
76124;BME280;65173;48.066;20.976;2023-11-21T12:17:48;99933.81;;;5.93;100.00
76124;BME280;65173;48.066;20.976;2023-11-21T12:20:54;99932.75;;;5.95;100.00
76124;BME280;65173;48.066;20.976;2023-11-21T12:23:56;99939.09;;;5.93;100.00
76124;BME280;65173;48.066;20.976;2023-11-21T12:26:59;99937.91;;;5.86;100.00
76124;BME280;65173;48.066;20.976;2023-11-21T12:30:01;99937.53;;;5.92;100.00
76124;BME280;65173;48.066;20.976;2023-11-21T12:33:04;99939.81;;;5.80;100.00
76124;BME280;65173;48.066;20.976;2023-11-21T12:36:11;99944.03;;;5.81;100.00
76124;BME280;65173;48.066;20.976;2023-11-21T12:39:13;99940.25;;;5.87;100.00
76124;BME280;65173;48.066;20.976;2023-11-21T12:42:18;99949.03;;;5.83;100.00
76124;BME280;65173;48.066;20.976;2023-11-21T12:45:23;99945.91;;;5.81;100.00
76124;BME280;65173;48.066;20.976;2023-11-21T12:48:28;99955.66;;;5.67;100.00
76124;BME280;65173;48.066;20.976;2023-11-21T12:51:32;99959.38;;;5.66;100.00
76124;BME280;65173;48.066;20.976;2023-11-21T12:54:34;99953.34;;;5.60;100.00
76124;BME280;65173;48.066;20.976;2023-11-21T12:57:41;99955.72;;;5.62;100.00
76124;BME280;65173;48.066;20.976;2023-11-21T13:00:47;99955.72;;;5.62;100.00
76124;BME280;65173;48.066;20.976;2023-11-21T13:03:50;99953.06;;;5.62;100.00
76124;BME280;65173;48.066;20.976;2023-11-21T13:06:53;99945.31;;;5.51;100.00
76124;BME280;65173;48.066;20.976;2023-11-21T13:09:57;99948.16;;;5.55;100.00
76124;BME280;65173;48.066;20.976;2023-11-21T13:13:01;99948.91;;;5.55;100.00
76124;BME280;65173;48.066;20.976;2023-11-21T13:16:07;99957.84;;;5.59;100.00
76124;BME280;65173;48.066;20.976;2023-11-21T13:19:10;99954.72;;;5.57;100.00
76124;BME280;65173;48.066;20.976;2023-11-21T13:22:13;99952.78;;;5.63;100.00
76124;BME280;65173;48.066;20.976;2023-11-21T13:25:16;99954.88;;;5.66;100.00
76124;BME280;65173;48.066;20.976;2023-11-21T13:28:21;99955.06;;;5.70;100.00
76124;BME280;65173;48.066;20.976;2023-11-21T13:31:26;99947.72;;;5.67;100.00
76124;BME280;65173;48.066;20.976;2023-11-21T13:34:33;99959.06;;;5.67;100.00
76124;BME280;65173;48.066;20.976;2023-11-21T13:37:38;99960.44;;;5.65;100.00
76124;BME280;65173;48.066;20.976;2023-11-21T13:40:41;99963.06;;;5.65;100.00
76124;BME280;65173;48.066;20.976;2023-11-21T13:43:51;99958.88;;;5.64;100.00
76124;BME280;65173;48.066;20.976;2023-11-21T13:47:01;99958.75;;;5.55;100.00
76124;BME280;65173;48.066;20.976;2023-11-21T13:50:04;99963.25;;;5.54;100.00
76124;BME280;65173;48.066;20.976;2023-11-21T13:53:16;99962.44;;;5.54;100.00
76124;BME280;65173;48.066;20.976;2023-11-21T13:56:20;99962.13;;;5.55;100.00
76124;BME280;65173;48.066;20.976;2023-11-21T13:59:27;99965.38;;;5.52;100.00
76124;BME280;65173;48.066;20.976;2023-11-21T14:02:32;99973.66;;;5.46;100.00
76124;BME280;65173;48.066;20.976;2023-11-21T14:05:43;99979.44;;;5.48;100.00
76124;BME280;65173;48.066;20.976;2023-11-21T14:08:46;99967.44;;;5.55;100.00
76124;BME280;65173;48.066;20.976;2023-11-21T14:11:55;99966.34;;;5.56;100.00
76124;BME280;65173;48.066;20.976;2023-11-21T14:14:59;99959.81;;;5.54;100.00
76124;BME280;65173;48.066;20.976;2023-11-21T14:18:02;99972.94;;;5.59;100.00
76124;BME280;65173;48.066;20.976;2023-11-21T14:21:09;99968.53;;;5.54;100.00
76124;BME280;65173;48.066;20.976;2023-11-21T14:24:13;99979.94;;;5.50;100.00
76124;BME280;65173;48.066;20.976;2023-11-21T14:27:16;99989.75;;;5.49;100.00
76124;BME280;65173;48.066;20.976;2023-11-21T14:30:18;99991.88;;;5.47;100.00
76124;BME280;65173;48.066;20.976;2023-11-21T14:33:25;99994.31;;;5.44;100.00
76124;BME280;65173;48.066;20.976;2023-11-21T14:36:28;99988.94;;;5.49;100.00
76124;BME280;65173;48.066;20.976;2023-11-21T14:39:31;99985.53;;;5.48;100.00
76124;BME280;65173;48.066;20.976;2023-11-21T14:42:40;99992.66;;;5.48;100.00
76124;BME280;65173;48.066;20.976;2023-11-21T14:45:42;99995.53;;;5.51;100.00
76124;BME280;65173;48.066;20.976;2023-11-21T14:48:45;100002.09;;;5.54;100.00
76124;BME280;65173;48.066;20.976;2023-11-21T14:52:00;100008.25;;;5.49;100.00
76124;BME280;65173;48.066;20.976;2023-11-21T14:55:04;100008.59;;;5.43;100.00
76124;BME280;65173;48.066;20.976;2023-11-21T14:58:27;100015.88;;;5.32;100.00
76124;BME280;65173;48.066;20.976;2023-11-21T15:01:31;100011.59;;;5.36;100.00
76124;BME280;65173;48.066;20.976;2023-11-21T15:04:58;100017.34;;;5.38;100.00
76124;BME280;65173;48.066;20.976;2023-11-21T15:08:04;100010.31;;;5.34;100.00
76124;BME280;65173;48.066;20.976;2023-11-21T15:11:19;100011.28;;;5.38;100.00
76124;BME280;65173;48.066;20.976;2023-11-21T15:14:27;100008.66;;;5.38;100.00
76124;BME280;65173;48.066;20.976;2023-11-21T15:17:33;100004.47;;;5.37;100.00
76124;BME280;65173;48.066;20.976;2023-11-21T15:20:36;100006.22;;;5.41;100.00
76124;BME280;65173;48.066;20.976;2023-11-21T15:23:39;100016.56;;;5.38;100.00
76124;BME280;65173;48.066;20.976;2023-11-21T15:26:43;100022.66;;;5.38;100.00
76124;BME280;65173;48.066;20.976;2023-11-21T15:29:45;100020.00;;;5.38;100.00
76124;BME280;65173;48.066;20.976;2023-11-21T15:32:48;100033.22;;;5.38;100.00
76124;BME280;65173;48.066;20.976;2023-11-21T15:35:50;100030.50;;;5.43;100.00
76124;BME280;65173;48.066;20.976;2023-11-21T15:38:53;100028.72;;;5.39;100.00
76124;BME280;65173;48.066;20.976;2023-11-21T15:41:57;100024.44;;;5.43;100.00
76124;BME280;65173;48.066;20.976;2023-11-21T15:45:00;100025.22;;;5.43;100.00
76124;BME280;65173;48.066;20.976;2023-11-21T15:48:02;100029.78;;;5.38;100.00
76124;BME280;65173;48.066;20.976;2023-11-21T15:51:06;100036.97;;;5.37;100.00
76124;BME280;65173;48.066;20.976;2023-11-21T15:54:10;100041.44;;;5.37;100.00
76124;BME280;65173;48.066;20.976;2023-11-21T15:57:13;100046.22;;;5.35;100.00
76124;BME280;65173;48.066;20.976;2023-11-21T16:00:17;100043.22;;;5.41;100.00
76124;BME280;65173;48.066;20.976;2023-11-21T16:03:22;100044.94;;;5.32;100.00
76124;BME280;65173;48.066;20.976;2023-11-21T16:06:27;100044.94;;;5.32;100.00
76124;BME280;65173;48.066;20.976;2023-11-21T16:09:29;100051.00;;;5.33;100.00